Debord, KY

8:51 AM EDT on September 16, 2014 (GMT -0400)
Big Sandy Reg AP, Prestonsbur | Change Station
CLOSE
Current Station
Airport
Location: Big Sandy Reg AP, Prestonsbur,
Elevation: 1220 ft
Nearby Weather Stations

Elev 1220 ft 37.75 °N, 82.64 °W | Updated 16 minutes ago

Overcast
Overcast
62 °F
Feels Like 62 °F
N
4
Wind Variable Wind from WSW

Today
High -- | Low -- °F
--% Chance of Precip.
Yesterday
High -- | Low -- °F
Precip. -- in
7:13 AM 7:36 PM
Last Quarter, 46% visible
Pressure 30.11 in
Visibility 10.0 miles
Clouds Scattered Clouds 200 ft
Scattered Clouds 1800 ft
Overcast 3300 ft
Dew Point 61 °F
Humidity 98%
Rainfall 0.00 in
Snow Depth Not available.
UV 0 out of 12
Pollen 4.80 out of 12
Air Quality Not available.
Flu Activity Not available.
METAR KSJS 161235Z AUTO 25003KT 10SM SCT002 SCT018 OVC033 16/16 A3011 RMK AO2 T01640161

More Conditions Fewer Conditions

Pressure 30.11 in
Visibility 10.0 miles
Clouds Scattered Clouds 200 ft
Scattered Clouds 1800 ft
Overcast 3300 ft
Dew Point 61 °F
Humidity 98%
Rainfall 0.00 in
Snow Depth Not available.
UV 0 out of 12
Pollen 4.80 out of 12
Air Quality Not available.
Flu Activity Not available.
METAR KSJS 161235Z AUTO 25003KT 10SM SCT002 SCT018 OVC033 16/16 A3011 RMK AO2 T01640161

More Conditions Fewer Conditions

10-Day Weather Forecast

Almanac

Astronomy

Sep. 16, 2014 Rise Set
Actual Time 7:13 AM EDT 7:36 PM EDT
Civil Twilight 6:46 AM EDT 8:03 PM EDT
Nautical Twilight 6:16 AM EDT 8:33 PM EDT
Astronomical Twilight 5:44 AM EDT 9:05 PM EDT
Moon 12:26 AM EDT 2:55 PM EDT
Length of Visible Light 13h 16m
Length of Day
12h 23m
Tomorrow will be 2m 23s shorter.
Last Quarter, 46% of the Moon is Illuminated
Today
Last Quarter
Sep 24
New
Oct 1
First Quarter
Oct 8
Full
Oct 15
Last Quarter

Today's Extremes

State Highs State Lows

Community

WunderPhotos

Upload Photos

1,753,756 photos uploaded!

Nearby

Snow Depth

Station Depth Elevation
No new snow has been reported.

Earthquake Activity

City Distance Mag. Time & Date
No recent earthquake activity has been reported nearby.
Minimum magnitude displayed is 2.5.

Coastal Water Temperatures

Place Temperature
No Stations Reporting

Nearby Weather Stations